Time,TemperatureF,DewpointF,PressureIn,WindDirection,WindDirectionDegrees,WindSpeedMPH,WindSpeedGustMPH,Humidity,HourlyPrecipIn,Conditions,Clouds,dailyrainin,SoftwareType,DateUTC
2013-02-10 00:01:00,44.0,25.0,30.32,SW,227,0.0,0.0,46,0.00,,,0.00,,2013-02-10 05:01:00,
2013-02-10 00:11:00,44.0,25.0,30.32,SW,227,0.0,0.0,46,0.00,,,0.00,,2013-02-10 05:11:00,
2013-02-10 00:23:00,43.0,25.0,30.31,SW,227,0.0,0.0,48,0.00,,,0.00,,2013-02-10 05:23:00,
2013-02-10 00:32:00,44.0,25.0,30.31,SW,227,0.0,0.0,47,0.00,,,0.00,,2013-02-10 05:32:00,
2013-02-10 00:42:00,44.0,25.0,30.31,SW,227,0.0,0.0,47,0.00,,,0.00,,2013-02-10 05:42:00,
2013-02-10 00:52:00,44.0,25.0,30.31,SW,227,0.0,0.0,46,0.00,,,0.00,,2013-02-10 05:52:00,
2013-02-10 01:02:00,44.0,25.0,30.30,SW,227,0.0,0.0,47,0.00,,,0.00,,2013-02-10 06:02:00,
2013-02-10 01:11:00,44.0,25.0,30.30,SW,227,0.0,0.0,47,0.00,,,0.00,,2013-02-10 06:11:00,
2013-02-10 01:21:00,44.0,25.0,30.30,SW,227,0.0,0.0,46,0.00,,,0.00,,2013-02-10 06:21:00,
2013-02-10 01:32:00,45.0,24.0,30.30,SW,227,0.0,0.0,43,0.00,,,0.00,,2013-02-10 06:32:00,
2013-02-10 01:42:00,45.0,24.0,30.30,SW,227,0.0,0.0,43,0.00,,,0.00,,2013-02-10 06:42:00,
2013-02-10 01:51:00,45.0,23.0,30.30,SW,227,0.0,0.0,42,0.00,,,0.00,,2013-02-10 06:51:00,
2013-02-10 02:01:00,45.0,23.0,30.30,SW,227,0.0,0.0,41,0.00,,,0.00,,2013-02-10 07:01:00,
2013-02-10 02:11:00,45.0,23.0,30.30,SW,227,0.0,0.0,41,0.00,,,0.00,,2013-02-10 07:11:00,
2013-02-10 02:21:00,45.0,22.0,30.30,SW,227,0.0,0.0,39,0.00,,,0.00,,2013-02-10 07:21:00,
2013-02-10 02:32:00,45.0,21.0,30.30,SW,227,0.0,0.0,38,0.00,,,0.00,,2013-02-10 07:32:00,
2013-02-10 02:42:00,45.0,21.0,30.30,SW,227,0.0,0.0,38,0.00,,,0.00,,2013-02-10 07:42:00,
2013-02-10 02:51:00,45.0,22.0,30.30,SW,227,0.0,0.0,39,0.00,,,0.00,,2013-02-10 07:51:00,
2013-02-10 03:01:00,44.0,21.0,30.30,SW,227,0.0,0.0,39,0.00,,,0.00,,2013-02-10 08:01:00,
2013-02-10 03:11:00,44.0,21.0,30.30,SW,227,0.0,0.0,39,0.00,,,0.00,,2013-02-10 08:11:00,
2013-02-10 03:21:00,44.0,20.0,30.30,SW,227,0.0,0.0,38,0.00,,,0.00,,2013-02-10 08:21:00,
2013-02-10 03:32:00,45.0,22.0,30.29,SW,227,0.0,0.0,39,0.00,,,0.00,,2013-02-10 08:32:00,
2013-02-10 03:43:00,45.0,22.0,30.29,SW,227,0.0,0.0,39,0.00,,,0.00,,2013-02-10 08:43:00,
2013-02-10 03:52:00,45.0,21.0,30.29,SW,227,0.0,0.0,38,0.00,,,0.00,,2013-02-10 08:52:00,
2013-02-10 04:02:00,45.0,21.0,30.28,SW,227,0.0,0.0,38,0.00,,,0.00,,2013-02-10 09:02:00,
2013-02-10 04:11:00,45.0,21.0,30.28,SW,227,0.0,0.0,38,0.00,,,0.00,,2013-02-10 09:11:00,
2013-02-10 04:21:00,44.0,21.0,30.28,SW,227,0.0,0.0,40,0.00,,,0.00,,2013-02-10 09:21:00,
2013-02-10 04:32:00,44.0,22.0,30.29,SW,227,0.0,0.0,41,0.00,,,0.00,,2013-02-10 09:32:00,
2013-02-10 04:42:00,44.0,22.0,30.29,SW,227,0.0,0.0,41,0.00,,,0.00,,2013-02-10 09:42:00,
2013-02-10 04:51:00,43.0,24.0,30.29,SW,227,0.0,0.0,46,0.00,,,0.00,,2013-02-10 09:51:00,
2013-02-10 05:01:00,43.0,23.0,30.30,SW,227,0.0,0.0,45,0.00,,,0.00,,2013-02-10 10:01:00,
2013-02-10 05:11:00,43.0,24.0,30.30,SW,227,0.0,0.0,46,0.00,,,0.00,,2013-02-10 10:11:00,
2013-02-10 05:21:00,43.0,24.0,30.30,SW,227,0.0,0.0,46,0.00,,,0.00,,2013-02-10 10:21:00,
2013-02-10 05:32:00,43.0,24.0,30.29,SW,227,0.0,0.0,47,0.00,,,0.00,,2013-02-10 10:32:00,
2013-02-10 05:42:00,43.0,24.0,30.29,SW,227,0.0,0.0,47,0.00,,,0.00,,2013-02-10 10:42:00,
2013-02-10 05:51:00,43.0,24.0,30.29,SW,227,0.0,0.0,47,0.00,,,0.00,,2013-02-10 10:51:00,
2013-02-10 06:01:00,43.0,24.0,30.30,SW,227,0.0,0.0,46,0.00,,,0.00,,2013-02-10 11:01:00,
2013-02-10 06:11:00,43.0,24.0,30.30,SW,227,0.0,0.0,46,0.00,,,0.00,,2013-02-10 11:11:00,
2013-02-10 06:22:00,43.0,23.0,30.30,SW,227,0.0,0.0,45,0.00,,,0.00,,2013-02-10 11:22:00,
2013-02-10 06:32:00,43.0,23.0,30.31,SW,227,0.0,0.0,45,0.00,,,0.00,,2013-02-10 11:32:00,
2013-02-10 06:42:00,43.0,23.0,30.31,SW,227,0.0,0.0,45,0.00,,,0.00,,2013-02-10 11:42:00,
2013-02-10 06:52:00,43.0,23.0,30.31,SW,227,0.0,0.0,44,0.00,,,0.00,,2013-02-10 11:52:00,
2013-02-10 07:02:00,42.0,22.0,30.31,SW,227,0.0,0.0,45,0.00,,,0.00,,2013-02-10 12:02:00,
2013-02-10 07:12:00,42.0,22.0,30.31,SW,227,0.0,0.0,45,0.00,,,0.00,,2013-02-10 12:12:00,
2013-02-10 07:21:00,42.0,22.0,30.31,SW,227,0.0,0.0,45,0.00,,,0.00,,2013-02-10 12:21:00,
2013-02-10 07:32:00,41.0,23.0,30.31,SW,227,0.0,0.0,49,0.00,,,0.00,,2013-02-10 12:32:00,
2013-02-10 07:42:00,41.0,23.0,30.31,SW,227,0.0,0.0,49,0.00,,,0.00,,2013-02-10 12:42:00,
2013-02-10 07:52:00,41.0,23.0,30.31,SW,227,0.0,0.0,48,0.00,,,0.00,,2013-02-10 12:52:00,
2013-02-10 08:02:00,41.0,22.0,30.31,SW,227,0.0,0.0,47,0.00,,,0.00,,2013-02-10 13:02:00,
2013-02-10 08:11:00,41.0,22.0,30.31,SW,227,0.0,0.0,47,0.00,,,0.00,,2013-02-10 13:11:00,
2013-02-10 08:21:00,41.0,22.0,30.31,SW,227,0.0,0.0,47,0.00,,,0.00,,2013-02-10 13:21:00,
2013-02-10 08:31:00,42.0,23.0,30.30,SW,227,0.0,0.0,46,0.00,,,0.00,,2013-02-10 13:31:00,
2013-02-10 08:41:00,42.0,23.0,30.30,SW,227,0.0,0.0,46,0.00,,,0.00,,2013-02-10 13:41:00,
2013-02-10 08:51:00,42.0,23.0,30.31,SW,227,0.0,0.0,47,0.00,,,0.00,,2013-02-10 13:51:00,
2013-02-10 09:02:00,42.0,22.0,30.31,SW,227,0.0,0.0,45,0.00,,,0.00,,2013-02-10 14:02:00,
2013-02-10 09:11:00,42.0,22.0,30.31,SW,227,0.0,0.0,45,0.00,,,0.00,,2013-02-10 14:11:00,
2013-02-10 09:21:00,42.0,24.0,30.30,East,80,0.0,0.0,49,0.00,,,0.00,,2013-02-10 14:21:00,
2013-02-10 09:32:00,42.0,23.0,30.32,East,94,0.0,1.0,47,0.00,,,0.00,,2013-02-10 14:32:00,
2013-02-10 09:41:00,42.0,23.0,30.32,East,94,0.0,1.0,47,0.00,,,0.00,,2013-02-10 14:41:00,
2013-02-10 09:52:00,42.0,23.0,30.31,East,94,0.0,0.0,47,0.00,,,0.00,,2013-02-10 14:52:00,
2013-02-10 10:02:00,43.0,24.0,30.32,East,101,0.0,0.0,47,0.00,,,0.00,,2013-02-10 15:02:00,
2013-02-10 10:11:00,43.0,24.0,30.32,East,101,0.0,0.0,47,0.00,,,0.00,,2013-02-10 15:11:00,
2013-02-10 10:22:00,43.0,25.0,30.32,ESE,105,1.0,1.0,48,0.00,,,0.00,,2013-02-10 15:22:00,
2013-02-10 10:32:00,43.0,24.0,30.32,SSW,213,0.0,0.0,47,0.00,,,0.00,,2013-02-10 15:32:00,
2013-02-10 10:42:00,43.0,24.0,30.32,SSW,213,0.0,0.0,47,0.00,,,0.00,,2013-02-10 15:42:00,
2013-02-10 10:52:00,43.0,24.0,30.32,South,188,0.0,1.0,47,0.00,,,0.00,,2013-02-10 15:52:00,
2013-02-10 11:02:00,44.0,25.0,30.31,ENE,65,0.0,1.0,46,0.00,,,0.00,,2013-02-10 16:02:00,
2013-02-10 11:12:00,44.0,25.0,30.31,ENE,65,0.0,1.0,46,0.00,,,0.00,,2013-02-10 16:12:00,
2013-02-10 11:22:00,44.0,25.0,30.31,ENE,65,0.0,1.0,46,0.00,,,0.00,,2013-02-10 16:22:00,
2013-02-10 11:32:00,46.0,25.0,30.30,SSW,196,1.0,5.0,44,0.00,,,0.00,,2013-02-10 16:32:00,
2013-02-10 11:42:00,46.0,24.0,30.29,South,187,8.0,10.0,41,0.00,,,0.00,,2013-02-10 16:42:00,
2013-02-10 11:52:00,46.0,24.0,30.29,South,187,8.0,10.0,41,0.00,,,0.00,,2013-02-10 16:52:00,
2013-02-10 12:02:00,47.0,25.0,30.28,South,186,3.0,3.0,41,0.00,,,0.00,,2013-02-10 17:02:00,
2013-02-10 12:11:00,47.0,25.0,30.28,South,186,3.0,3.0,41,0.00,,,0.00,,2013-02-10 17:11:00,
2013-02-10 12:22:00,46.0,22.0,30.29,SSE,153,0.0,8.0,39,0.00,,,0.00,,2013-02-10 17:22:00,
2013-02-10 12:32:00,47.0,23.0,30.28,ESE,115,6.0,10.0,39,0.00,,,0.00,,2013-02-10 17:32:00,
2013-02-10 12:42:00,48.0,25.0,30.27,South,177,2.0,6.0,40,0.00,,,0.00,,2013-02-10 17:42:00,
2013-02-10 12:52:00,48.0,25.0,30.27,South,177,2.0,6.0,40,0.00,,,0.00,,2013-02-10 17:52:00,
2013-02-10 13:02:00,49.0,25.0,30.24,SE,130,1.0,7.0,39,0.00,,,0.00,,2013-02-10 18:02:00,
2013-02-10 13:12:00,50.0,22.0,30.23,East,85,3.0,5.0,33,0.00,,,0.00,,2013-02-10 18:12:00,
2013-02-10 13:22:00,50.0,22.0,30.23,East,85,3.0,5.0,33,0.00,,,0.00,,2013-02-10 18:22:00,
2013-02-10 13:32:00,51.0,23.0,30.20,SSW,211,1.0,4.0,33,0.00,,,0.00,,2013-02-10 18:32:00,
2013-02-10 13:42:00,51.0,23.0,30.20,SSW,211,1.0,4.0,33,0.00,,,0.00,,2013-02-10 18:42:00,
2013-02-10 13:52:00,51.0,20.0,30.19,SW,221,0.0,10.0,29,0.00,,,0.00,,2013-02-10 18:52:00,
2013-02-10 14:02:00,52.0,20.0,30.22,ESE,111,3.0,6.0,28,0.00,,,0.00,,2013-02-10 19:02:00,
2013-02-10 14:12:00,50.0,20.0,30.22,SSW,211,4.0,4.0,30,0.00,,,0.00,,2013-02-10 19:12:00,
2013-02-10 14:22:00,50.0,20.0,30.22,SSW,211,4.0,4.0,30,0.00,,,0.00,,2013-02-10 19:22:00,
2013-02-10 14:32:00,49.0,26.0,30.20,SSE,163,8.0,11.0,40,0.00,,,0.00,,2013-02-10 19:32:00,
2013-02-10 14:42:00,49.0,27.0,30.20,SSW,200,3.0,10.0,43,0.00,,,0.00,,2013-02-10 19:42:00,
2013-02-10 14:52:00,49.0,27.0,30.20,SSW,200,3.0,10.0,43,0.00,,,0.00,,2013-02-10 19:52:00,
2013-02-10 15:02:00,49.0,29.0,30.17,ESE,118,0.0,7.0,45,0.00,,,0.00,,2013-02-10 20:02:00,
2013-02-10 15:11:00,49.0,29.0,30.17,ESE,118,0.0,7.0,45,0.00,,,0.00,,2013-02-10 20:11:00,
2013-02-10 15:22:00,49.0,31.0,30.18,SE,136,0.0,3.0,49,0.00,,,0.00,,2013-02-10 20:22:00,
2013-02-10 15:32:00,48.0,30.0,30.17,SE,144,0.0,6.0,50,0.00,,,0.00,,2013-02-10 20:32:00,
2013-02-10 15:42:00,48.0,31.0,30.18,SW,227,0.0,4.0,51,0.00,,,0.00,,2013-02-10 20:42:00,
2013-02-10 15:52:00,48.0,31.0,30.18,SW,227,0.0,4.0,51,0.00,,,0.00,,2013-02-10 20:52:00,
2013-02-10 16:02:00,48.0,33.0,30.18,South,177,0.0,1.0,55,0.00,,,0.00,,2013-02-10 21:02:00,
2013-02-10 16:11:00,48.0,33.0,30.18,South,177,0.0,1.0,55,0.00,,,0.00,,2013-02-10 21:11:00,
2013-02-10 16:22:00,47.0,32.0,30.18,South,169,0.0,0.0,56,0.00,,,0.00,,2013-02-10 21:22:00,
2013-02-10 16:32:00,46.0,35.0,30.16,South,169,0.0,0.0,64,0.01,,,0.01,,2013-02-10 21:32:00,
2013-02-10 16:42:00,45.0,36.0,30.17,South,169,0.0,0.0,70,0.01,,,0.01,,2013-02-10 21:42:00,
2013-02-10 16:52:00,45.0,36.0,30.17,South,169,0.0,0.0,70,0.01,,,0.01,,2013-02-10 21:52:00,
2013-02-10 17:02:00,44.0,37.0,30.17,South,169,0.0,0.0,75,0.03,,,0.03,,2013-02-10 22:02:00,
2013-02-10 17:12:00,43.0,37.0,30.19,South,169,0.0,0.0,80,0.05,,,0.05,,2013-02-10 22:12:00,
2013-02-10 17:22:00,43.0,37.0,30.19,South,169,0.0,0.0,80,0.05,,,0.05,,2013-02-10 22:22:00,
2013-02-10 17:32:00,42.0,38.0,30.18,South,169,0.0,0.0,86,0.09,,,0.10,,2013-02-10 22:32:00,
2013-02-10 17:42:00,42.0,38.0,30.18,South,169,0.0,0.0,87,0.12,,,0.13,,2013-02-10 22:42:00,
2013-02-10 17:52:00,42.0,38.0,30.18,South,169,0.0,0.0,87,0.12,,,0.13,,2013-02-10 22:52:00,
2013-02-10 18:02:00,41.0,38.0,30.19,South,169,0.0,0.0,89,0.20,,,0.23,,2013-02-10 23:02:00,
2013-02-10 18:11:00,41.0,38.0,30.19,South,169,0.0,0.0,89,0.20,,,0.23,,2013-02-10 23:11:00,
2013-02-10 18:22:00,41.0,38.0,30.18,South,169,0.0,0.0,90,0.24,,,0.28,,2013-02-10 23:22:00,
2013-02-10 18:32:00,41.0,38.0,30.18,South,169,0.0,0.0,90,0.27,,,0.36,,2013-02-10 23:32:00,
2013-02-10 18:42:00,41.0,39.0,30.18,South,169,0.0,0.0,91,0.27,,,0.40,,2013-02-10 23:42:00,
2013-02-10 18:52:00,41.0,39.0,30.18,South,169,0.0,0.0,91,0.27,,,0.40,,2013-02-10 23:52:00,
2013-02-10 19:02:00,41.0,39.0,30.18,South,169,0.0,0.0,91,0.23,,,0.46,,2013-02-11 00:02:00,
2013-02-10 19:11:00,41.0,39.0,30.19,South,169,0.0,0.0,91,0.22,,,0.49,,2013-02-11 00:11:00,
2013-02-10 19:22:00,41.0,39.0,30.19,South,169,0.0,0.0,91,0.22,,,0.49,,2013-02-11 00:22:00,
2013-02-10 19:32:00,41.0,39.0,30.21,South,169,0.0,0.0,92,0.20,,,0.56,,2013-02-11 00:32:00,
2013-02-10 19:42:00,41.0,39.0,30.21,South,169,0.0,0.0,92,0.18,,,0.58,,2013-02-11 00:42:00,
2013-02-10 19:51:00,41.0,39.0,30.21,South,169,0.0,0.0,92,0.18,,,0.58,,2013-02-11 00:51:00,
2013-02-10 20:01:00,41.0,39.0,30.22,South,169,0.0,0.0,92,0.17,,,0.63,,2013-02-11 01:01:00,
2013-02-10 20:11:00,41.0,39.0,30.22,South,169,0.0,0.0,92,0.17,,,0.63,,2013-02-11 01:11:00,
2013-02-10 20:21:00,42.0,40.0,30.23,South,169,0.0,0.0,92,0.16,,,0.65,,2013-02-11 01:21:00,
2013-02-10 20:32:00,42.0,40.0,30.25,South,169,0.0,0.0,92,0.15,,,0.70,,2013-02-11 01:32:00,
2013-02-10 20:42:00,42.0,40.0,30.25,South,169,0.0,0.0,93,0.14,,,0.72,,2013-02-11 01:42:00,
2013-02-10 20:52:00,42.0,40.0,30.25,South,169,0.0,0.0,93,0.14,,,0.72,,2013-02-11 01:52:00,
2013-02-10 21:01:00,43.0,41.0,30.22,South,169,0.0,0.0,92,0.15,,,0.78,,2013-02-11 02:01:00,
2013-02-10 21:11:00,43.0,41.0,30.22,South,169,0.0,0.0,92,0.15,,,0.78,,2013-02-11 02:11:00,
2013-02-10 21:21:00,43.0,41.0,30.21,South,169,0.0,0.0,92,0.15,,,0.80,,2013-02-11 02:21:00,
2013-02-10 21:32:00,44.0,42.0,30.21,South,169,0.0,0.0,93,0.17,,,0.86,,2013-02-11 02:32:00,
2013-02-10 21:42:00,44.0,42.0,30.19,South,169,0.0,0.0,93,0.17,,,0.89,,2013-02-11 02:42:00,
2013-02-10 21:52:00,44.0,42.0,30.19,South,169,0.0,0.0,93,0.17,,,0.89,,2013-02-11 02:52:00,
2013-02-10 22:02:00,45.0,43.0,30.18,South,169,0.0,0.0,92,0.17,,,0.95,,2013-02-11 03:02:00,
2013-02-10 22:11:00,45.0,43.0,30.18,South,169,0.0,0.0,92,0.17,,,0.95,,2013-02-11 03:11:00,
2013-02-10 22:21:00,45.0,43.0,30.18,South,169,0.0,0.0,92,0.16,,,0.96,,2013-02-11 03:21:00,
2013-02-10 22:32:00,45.0,43.0,30.17,South,169,0.0,0.0,92,0.14,,,0.97,,2013-02-11 03:32:00,
2013-02-10 22:42:00,45.0,43.0,30.15,South,169,0.0,0.0,92,0.08,,,0.97,,2013-02-11 03:42:00,
2013-02-10 22:52:00,45.0,43.0,30.15,South,169,0.0,0.0,92,0.08,,,0.97,,2013-02-11 03:52:00,
2013-02-10 23:02:00,46.0,44.0,30.14,South,169,0.0,0.0,92,0.02,,,0.97,,2013-02-11 04:02:00,
2013-02-10 23:11:00,46.0,44.0,30.14,South,169,0.0,0.0,92,0.02,,,0.97,,2013-02-11 04:11:00,
2013-02-10 23:22:00,47.0,45.0,30.12,South,169,0.0,0.0,92,0.02,,,0.98,,2013-02-11 04:22:00,
2013-02-10 23:32:00,47.0,45.0,30.14,South,169,0.0,0.0,92,0.01,,,0.98,,2013-02-11 04:32:00,
2013-02-10 23:42:00,47.0,45.0,30.14,South,169,0.0,0.0,92,0.01,,,0.98,,2013-02-11 04:42:00,
2013-02-10 23:52:00,47.0,45.0,30.14,South,169,0.0,0.0,92,0.01,,,0.98,,2013-02-11 04:52:00,